Brightside, New York
Current Conditions -  °F | °C
As of 3:51 PM on Thursday 23 Oct 2014 (Local Time) from KSLK Reporting Station
Overcast Overcast  
Wind Chill: 38°   Ceiling: 900
Heat Index: 42°   Visibility: 10mi
Dew Point: 40°   Wind: 7mph
Humidity: 92%   Direction: 20°NNE
Pressure: 29.9"   Gusts: NA
Location:  43.8706°N, 74.5546°W
Report Text: KSLK 231951Z AUTO 02006KT 10SM BKN009 OVC014 06/04 A2990 RMK AO2 RAB16E44 SLP134 P0000 T00560044
Loading
Personal Weather Stations






























Interactive Weather Map
Tropical Storm Tracking
New forecast layout! Learn more

10-Day Weather Forecast

Advertisements
Track Severe Weather on mobile